Time,TemperatureF,DewpointF,PressureIn,WindDirection,WindDirectionDegrees,WindSpeedMPH,WindSpeedGustMPH,Humidity,HourlyPrecipIn,Conditions,Clouds,dailyrainin,SolarRadiationWatts/m^2,SoftwareType,DateUTC
2013-01-27 00:14:00,33.2,26.0,30.03,NNE,13,6.0,10.0,74,0.00,,,0.00,0,weatherlink.com 1.10,2013-01-27 07:14:00,
2013-01-27 00:29:00,33.1,26.0,30.04,NNE,25,5.0,10.0,74,0.00,,,0.00,0,weatherlink.com 1.10,2013-01-27 07:29:00,
2013-01-27 00:44:00,33.5,26.0,30.04,NNE,25,7.0,14.0,73,0.00,,,0.00,0,weatherlink.com 1.10,2013-01-27 07:44:00,
2013-01-27 00:59:00,33.7,25.0,30.04,NE,48,7.0,10.0,71,0.00,,,0.00,0,weatherlink.com 1.10,2013-01-27 07:59:00,
2013-01-27 01:14:00,33.6,25.0,30.04,North,358,5.0,8.0,72,0.00,,,0.00,0,weatherlink.com 1.10,2013-01-27 08:14:00,
2013-01-27 01:29:00,33.5,25.0,30.03,North,2,7.0,8.0,71,0.00,,,0.00,0,weatherlink.com 1.10,2013-01-27 08:29:00,
2013-01-27 01:44:00,32.4,27.0,30.04,NW,321,2.0,6.0,80,0.00,,,0.00,0,weatherlink.com 1.10,2013-01-27 08:44:00,
2013-01-27 01:59:00,31.5,28.0,30.03,NW,321,0.0,2.0,85,0.00,,,0.00,0,weatherlink.com 1.10,2013-01-27 08:59:00,
2013-01-27 02:14:00,32.9,25.0,30.03,North,8,7.0,10.0,73,0.00,,,0.00,0,weatherlink.com 1.10,2013-01-27 09:14:00,
2013-01-27 02:29:00,31.9,27.0,30.04,NW,310,0.0,3.0,83,0.00,,,0.00,0,weatherlink.com 1.10,2013-01-27 09:29:00,
2013-01-27 02:44:00,31.1,27.0,30.05,NW,310,1.0,2.0,86,0.00,,,0.00,0,weatherlink.com 1.10,2013-01-27 09:44:00,
2013-01-27 02:59:00,30.9,28.0,30.05,NE,48,4.0,5.0,87,0.00,,,0.00,0,weatherlink.com 1.10,2013-01-27 09:59:00,
2013-01-27 03:14:00,30.7,26.0,30.04,NE,48,2.0,5.0,83,0.00,,,0.00,0,weatherlink.com 1.10,2013-01-27 10:14:00,
2013-01-27 03:29:00,30.9,27.0,30.04,North,2,2.0,4.0,86,0.00,,,0.00,0,weatherlink.com 1.10,2013-01-27 10:29:00,
2013-01-27 03:44:00,30.1,26.0,30.04,North,350,2.0,3.0,86,0.00,,,0.00,0,weatherlink.com 1.10,2013-01-27 10:44:00,
2013-01-27 03:59:00,30.0,26.0,30.05,North,350,0.0,1.0,86,0.00,,,0.00,0,weatherlink.com 1.10,2013-01-27 10:59:00,
2013-01-27 04:14:00,29.8,26.0,30.05,NNE,21,2.0,5.0,86,0.00,,,0.00,0,weatherlink.com 1.10,2013-01-27 11:14:00,
2013-01-27 04:29:00,30.3,26.0,30.05,NNE,20,0.0,2.0,85,0.00,,,0.00,0,weatherlink.com 1.10,2013-01-27 11:29:00,
2013-01-27 04:44:00,30.4,27.0,30.05,NNE,20,0.0,2.0,86,0.00,,,0.00,0,weatherlink.com 1.10,2013-01-27 11:44:00,
2013-01-27 04:59:00,29.8,27.0,30.04,NNE,19,0.0,3.0,88,0.00,,,0.00,0,weatherlink.com 1.10,2013-01-27 11:59:00,
2013-01-27 05:14:00,30.3,26.0,30.05,North,2,4.0,6.0,84,0.00,,,0.00,0,weatherlink.com 1.10,2013-01-27 12:14:00,
2013-01-27 05:29:00,32.5,25.0,30.05,NNE,16,5.0,9.0,75,0.00,,,0.00,0,weatherlink.com 1.10,2013-01-27 12:29:00,
2013-01-27 05:44:00,31.0,26.0,30.05,North,355,3.0,6.0,82,0.00,,,0.00,0,weatherlink.com 1.10,2013-01-27 12:44:00,
2013-01-27 05:59:00,29.3,26.0,30.06,North,355,1.0,1.0,88,0.00,,,0.00,0,weatherlink.com 1.10,2013-01-27 12:59:00,
2013-01-27 06:14:00,29.1,26.0,30.06,North,355,0.0,1.0,88,0.00,,,0.00,0,weatherlink.com 1.10,2013-01-27 13:14:00,
2013-01-27 06:29:00,31.4,25.0,30.06,North,354,6.0,11.0,77,0.00,,,0.00,0,weatherlink.com 1.10,2013-01-27 13:29:00,
2013-01-27 06:44:00,31.5,25.0,30.07,NNE,19,5.0,9.0,76,0.00,,,0.00,0,weatherlink.com 1.10,2013-01-27 13:44:00,
2013-01-27 06:59:00,30.5,25.0,30.07,NNW,343,0.0,8.0,81,0.00,,,0.00,0,weatherlink.com 1.10,2013-01-27 13:59:00,
2013-01-27 07:14:00,28.7,25.0,30.07,NNW,343,3.0,3.0,87,0.00,,,0.00,0,weatherlink.com 1.10,2013-01-27 14:14:00,
2013-01-27 07:30:00,27.8,25.0,30.08,NNW,343,1.0,3.0,89,0.00,,,0.00,0,weatherlink.com 1.10,2013-01-27 14:30:00,
2013-01-27 07:45:00,27.8,25.0,30.07,ESE,106,3.0,5.0,90,0.00,,,0.00,0,weatherlink.com 1.10,2013-01-27 14:45:00,
2013-01-27 08:00:00,28.9,26.0,30.07,East,94,3.0,7.0,87,0.00,,,0.00,0,weatherlink.com 1.10,2013-01-27 15:00:00,
2013-01-27 08:15:00,28.3,25.0,30.07,South,182,0.0,6.0,87,0.00,,,0.00,7,weatherlink.com 1.10,2013-01-27 15:15:00,
2013-01-27 08:30:00,28.3,25.0,30.08,ESE,104,4.0,6.0,88,0.00,,,0.00,16,weatherlink.com 1.10,2013-01-27 15:30:00,
2013-01-27 08:45:00,29.0,25.0,30.08,ESE,109,3.0,5.0,86,0.00,,,0.00,33,weatherlink.com 1.10,2013-01-27 15:45:00,
2013-01-27 09:00:00,29.7,25.0,30.08,SSE,151,3.0,5.0,84,0.00,,,0.00,46,weatherlink.com 1.10,2013-01-27 16:00:00,
2013-01-27 09:15:00,30.0,26.0,30.08,ESE,110,2.0,5.0,84,0.00,,,0.00,84,weatherlink.com 1.10,2013-01-27 16:15:00,
2013-01-27 09:30:00,31.1,26.0,30.09,NNE,33,2.0,4.0,82,0.00,,,0.00,102,weatherlink.com 1.10,2013-01-27 16:30:00,
2013-01-27 09:45:00,30.6,26.0,30.09,NW,314,2.0,4.0,84,0.00,,,0.00,100,weatherlink.com 1.10,2013-01-27 16:45:00,
2013-01-27 10:00:00,30.9,26.0,30.09,NNW,347,0.0,2.0,83,0.00,,,0.00,105,weatherlink.com 1.10,2013-01-27 17:00:00,
2013-01-27 10:15:00,31.2,27.0,30.10,WNW,295,2.0,6.0,83,0.00,,,0.00,88,weatherlink.com 1.10,2013-01-27 17:15:00,
2013-01-27 10:30:00,30.5,27.0,30.10,WSW,238,0.0,6.0,85,0.00,,,0.00,134,weatherlink.com 1.10,2013-01-27 17:30:00,
2013-01-27 10:45:00,30.3,27.0,30.10,WSW,238,0.0,3.0,86,0.00,,,0.00,149,weatherlink.com 1.10,2013-01-27 17:45:00,
2013-01-27 11:00:00,30.9,26.0,30.10,WSW,237,1.0,2.0,83,0.00,,,0.00,158,weatherlink.com 1.10,2013-01-27 18:00:00,
2013-01-27 11:15:00,32.2,27.0,30.10,North,360,0.0,3.0,80,0.00,,,0.00,209,weatherlink.com 1.10,2013-01-27 18:15:00,
2013-01-27 11:30:00,31.9,27.0,30.10,WSW,248,0.0,5.0,81,0.00,,,0.00,149,weatherlink.com 1.10,2013-01-27 18:30:00,
2013-01-27 11:45:00,32.0,27.0,30.10,WSW,248,3.0,3.0,80,0.00,,,0.00,149,weatherlink.com 1.10,2013-01-27 18:45:00,
2013-01-27 12:00:00,32.6,26.0,30.10,East,84,0.0,3.0,75,0.00,,,0.00,206,weatherlink.com 1.10,2013-01-27 19:00:00,
2013-01-27 12:15:00,33.4,27.0,30.10,SSE,166,3.0,6.0,76,0.00,,,0.00,265,weatherlink.com 1.10,2013-01-27 19:15:00,
2013-01-27 12:30:00,33.9,26.0,30.09,SSE,148,7.0,7.0,73,0.00,,,0.00,468,weatherlink.com 1.10,2013-01-27 19:30:00,
2013-01-27 12:45:00,35.6,26.0,30.09,South,176,6.0,8.0,67,0.00,,,0.00,555,weatherlink.com 1.10,2013-01-27 19:45:00,
2013-01-27 13:00:00,35.9,25.0,30.08,South,177,7.0,8.0,64,0.00,,,0.00,520,weatherlink.com 1.10,2013-01-27 20:00:00,
2013-01-27 13:15:00,36.2,25.0,30.07,South,183,7.0,7.0,64,0.00,,,0.00,534,weatherlink.com 1.10,2013-01-27 20:15:00,
2013-01-27 13:30:00,37.5,25.0,30.06,SSE,156,3.0,8.0,61,0.00,,,0.00,573,weatherlink.com 1.10,2013-01-27 20:30:00,
2013-01-27 13:45:00,37.1,22.0,30.05,South,188,0.0,7.0,55,0.00,,,0.00,469,weatherlink.com 1.10,2013-01-27 20:45:00,
2013-01-27 14:00:00,35.7,22.0,30.04,West,267,1.0,6.0,57,0.00,,,0.00,260,weatherlink.com 1.10,2013-01-27 21:00:00,
2013-01-27 14:15:00,36.1,22.0,30.04,NNE,33,5.0,5.0,57,0.00,,,0.00,116,weatherlink.com 1.10,2013-01-27 21:15:00,
2013-01-27 14:30:00,35.3,23.0,30.04,ENE,76,1.0,5.0,61,0.00,,,0.00,116,weatherlink.com 1.10,2013-01-27 21:30:00,
2013-01-27 14:45:00,35.0,22.0,30.05,ENE,77,0.0,3.0,60,0.00,,,0.00,109,weatherlink.com 1.10,2013-01-27 21:45:00,
2013-01-27 15:00:00,34.8,23.0,30.04,SSE,156,2.0,5.0,62,0.00,,,0.00,149,weatherlink.com 1.10,2013-01-27 22:00:00,
2013-01-27 15:15:00,35.6,22.0,30.05,South,171,1.0,3.0,58,0.00,,,0.00,169,weatherlink.com 1.10,2013-01-27 22:15:00,
2013-01-27 15:30:00,35.4,23.0,30.05,NNE,27,7.0,9.0,60,0.00,,,0.00,88,weatherlink.com 1.10,2013-01-27 22:30:00,
2013-01-27 15:45:00,33.8,23.0,30.05,NNE,22,2.0,10.0,65,0.00,,,0.00,62,weatherlink.com 1.10,2013-01-27 22:45:00,
2013-01-27 16:00:00,33.7,24.0,30.05,NE,53,3.0,6.0,67,0.00,,,0.00,49,weatherlink.com 1.10,2013-01-27 23:00:00,
2013-01-27 16:15:00,33.7,24.0,30.05,ENE,69,2.0,5.0,67,0.00,,,0.00,33,weatherlink.com 1.10,2013-01-27 23:15:00,
2013-01-27 16:30:00,33.5,25.0,30.06,East,83,2.0,4.0,70,0.00,,,0.00,37,weatherlink.com 1.10,2013-01-27 23:30:00,
2013-01-27 16:45:00,33.0,25.0,30.06,SSE,158,4.0,6.0,72,0.00,,,0.00,23,weatherlink.com 1.10,2013-01-27 23:45:00,
2013-01-27 17:00:00,32.3,25.0,30.07,SSE,162,2.0,3.0,75,0.00,,,0.00,25,weatherlink.com 1.10,2013-01-28 00:00:00,
2013-01-27 17:15:00,32.1,25.0,30.07,ESE,108,7.0,7.0,75,0.00,,,0.00,14,weatherlink.com 1.10,2013-01-28 00:15:00,
2013-01-27 17:30:00,31.5,25.0,30.06,ESE,102,7.0,10.0,78,0.00,,,0.00,5,weatherlink.com 1.10,2013-01-28 00:30:00,
2013-01-27 17:45:00,30.7,25.0,30.07,East,83,8.0,9.0,78,0.00,,,0.00,0,weatherlink.com 1.10,2013-01-28 00:45:00,
2013-01-27 18:00:00,31.3,24.0,30.07,ENE,61,7.0,11.0,75,0.00,,,0.00,0,weatherlink.com 1.10,2013-01-28 01:00:00,
2013-01-27 18:15:00,32.0,23.0,30.07,East,91,6.0,9.0,70,0.00,,,0.00,0,weatherlink.com 1.10,2013-01-28 01:15:00,
2013-01-27 18:30:00,31.7,24.0,30.07,NE,48,4.0,6.0,72,0.00,,,0.00,0,weatherlink.com 1.10,2013-01-28 01:30:00,
2013-01-27 18:45:00,29.9,24.0,30.08,ENE,72,3.0,3.0,79,0.00,,,0.00,0,weatherlink.com 1.10,2013-01-28 01:45:00,
2013-01-27 19:00:00,29.8,23.0,30.08,East,79,5.0,7.0,76,0.00,,,0.00,0,weatherlink.com 1.10,2013-01-28 02:00:00,
2013-01-27 19:15:00,29.9,23.0,30.09,East,87,0.0,3.0,76,0.00,,,0.00,0,weatherlink.com 1.10,2013-01-28 02:15:00,
2013-01-27 19:30:00,29.2,24.0,30.08,East,79,2.0,6.0,80,0.00,,,0.00,0,weatherlink.com 1.10,2013-01-28 02:30:00,
2013-01-27 19:45:00,30.6,23.0,30.08,East,81,5.0,7.0,74,0.00,,,0.00,0,weatherlink.com 1.10,2013-01-28 02:45:00,
2013-01-27 20:00:00,30.5,24.0,30.09,ENE,67,0.0,4.0,77,0.00,,,0.00,0,weatherlink.com 1.10,2013-01-28 03:00:00,
2013-01-27 20:15:00,28.9,23.0,30.09,ENE,67,2.0,3.0,80,0.00,,,0.00,0,weatherlink.com 1.10,2013-01-28 03:15:00,
2013-01-27 20:30:00,28.8,23.0,30.09,NNE,14,3.0,6.0,80,0.00,,,0.00,0,weatherlink.com 1.10,2013-01-28 03:30:00,
2013-01-27 20:46:00,29.2,23.0,30.09,NNE,32,0.0,5.0,79,0.00,,,0.00,0,weatherlink.com 1.10,2013-01-28 03:46:00,
2013-01-27 21:01:00,29.1,23.0,30.09,East,98,0.0,4.0,78,0.00,,,0.00,0,weatherlink.com 1.10,2013-01-28 04:01:00,
2013-01-27 21:16:00,28.3,23.0,30.09,North,1,0.0,4.0,81,0.00,,,0.00,0,weatherlink.com 1.10,2013-01-28 04:16:00,
2013-01-27 21:31:00,28.1,23.0,30.08,ENE,74,1.0,4.0,82,0.00,,,0.00,0,weatherlink.com 1.10,2013-01-28 04:31:00,
2013-01-27 21:46:00,27.3,23.0,30.09,East,81,3.0,3.0,85,0.00,,,0.00,0,weatherlink.com 1.10,2013-01-28 04:46:00,
2013-01-27 22:16:00,28.0,24.0,30.09,SE,128,1.0,3.0,86,0.00,,,0.00,0,weatherlink.com 1.10,2013-01-28 05:16:00,
2013-01-27 22:31:00,27.5,24.0,30.09,NE,48,2.0,7.0,85,0.00,,,0.00,0,weatherlink.com 1.10,2013-01-28 05:31:00,
2013-01-27 22:46:00,26.8,24.0,30.10,ENE,67,2.0,5.0,87,0.00,,,0.00,0,weatherlink.com 1.10,2013-01-28 05:46:00,
2013-01-27 23:01:00,27.0,23.0,30.11,South,178,0.0,4.0,86,0.00,,,0.00,0,weatherlink.com 1.10,2013-01-28 06:01:00,
2013-01-27 23:16:00,26.7,24.0,30.11,ENE,67,3.0,5.0,88,0.00,,,0.00,0,weatherlink.com 1.10,2013-01-28 06:16:00,
2013-01-27 23:31:00,27.9,24.0,30.10,ENE,75,2.0,6.0,85,0.00,,,0.00,0,weatherlink.com 1.10,2013-01-28 06:31:00,
2013-01-27 23:46:00,27.4,24.0,30.10,ENE,77,3.0,3.0,86,0.00,,,0.00,0,weatherlink.com 1.10,2013-01-28 06:46:00,